Terminal Aerodrome Forecast
Issued by NWS

Home | Current Version | Previous Version | Text Only | Print | Product List | Glossary On
Versions: 1 2 3 4 5 6 7 8 9 10 11 12 13 14 15 16 17 18 19 20 21 22 23 24 25 26
532
FTUS43 KDLH 081541 AAA
TAFHYR
TAF AMD
KHYR 081541Z 0816/0912 32009G15KT 4SM -SN BKN017 OVC035
      TEMPO 0816/0820 1 1/2SM -SN SCT017 OVC030
     FM082000 32010G17KT 5SM -SN BKN025 OVC035
     FM090000 34012G20KT 4SM -SN OVC020
     FM091000 34012KT P6SM BKN025=

USA.gov is the U.S. government's official web portal to all federal, state and local government web resources and services.